createdAt,value
2019-05-20T00:01:59.504Z,17.24
2019-05-20T00:04:31.071Z,17.05
2019-05-20T00:07:02.527Z,17.05
2019-05-20T00:09:33.948Z,17.06
2019-05-20T00:12:05.421Z,16.95
2019-05-20T00:14:36.979Z,16.94
2019-05-20T00:17:13.114Z,16.89
2019-05-20T00:19:45.177Z,16.87
2019-05-20T00:22:16.583Z,16.85
2019-05-20T00:24:48.185Z,16.81
2019-05-20T00:27:19.599Z,16.70
2019-05-20T00:29:51.573Z,16.67
2019-05-20T00:32:22.992Z,16.64
2019-05-20T00:34:54.440Z,16.53
2019-05-20T00:37:25.856Z,16.57
2019-05-20T00:39:57.365Z,16.49
2019-05-20T00:42:28.805Z,16.43
2019-05-20T00:45:00.333Z,16.38
2019-05-20T00:47:31.763Z,16.35
2019-05-20T00:50:03.532Z,16.30
2019-05-20T00:52:35.080Z,16.31
2019-05-20T00:55:08.238Z,16.34
2019-05-20T00:57:39.740Z,16.33
2019-05-20T01:00:11.381Z,16.26
2019-05-20T01:02:56.065Z,16.25
2019-05-20T01:05:16.747Z,16.26
2019-05-20T01:07:48.542Z,16.23
2019-05-20T01:10:21.208Z,16.19
2019-05-20T01:12:53.745Z,16.19
2019-05-20T01:15:26.092Z,16.18
2019-05-20T01:17:57.514Z,16.18
2019-05-20T01:20:29.032Z,16.13
2019-05-20T01:23:00.567Z,16.14
2019-05-20T01:25:32.043Z,16.15
2019-05-20T01:28:03.463Z,16.06
2019-05-20T01:30:34.948Z,16.01
2019-05-20T01:33:13.708Z,15.93
2019-05-20T01:35:39.491Z,15.78
2019-05-20T01:38:11.022Z,15.59
2019-05-20T01:40:43.438Z,15.58
2019-05-20T01:43:14.945Z,15.40
2019-05-20T01:45:46.438Z,15.31
2019-05-20T01:48:17.884Z,15.28
2019-05-20T01:50:49.372Z,15.48
2019-05-20T01:53:20.796Z,15.56
2019-05-20T01:55:52.306Z,15.48
2019-05-20T01:58:23.746Z,15.46
2019-05-20T02:00:55.166Z,15.55
2019-05-20T02:03:31.698Z,15.64
2019-05-20T02:05:59.864Z,15.66
2019-05-20T02:08:31.308Z,15.75
2019-05-20T02:11:02.799Z,15.78
2019-05-20T02:13:51.147Z,15.77
2019-05-20T02:16:24.262Z,15.82
2019-05-20T02:18:55.813Z,15.87
2019-05-20T02:21:27.556Z,15.88
2019-05-20T02:23:59.085Z,15.87
2019-05-20T02:26:31.588Z,16.00
2019-05-20T02:29:03.095Z,16.14
2019-05-20T02:31:34.600Z,16.36
2019-05-20T02:34:06.190Z,16.44
2019-05-20T02:36:37.717Z,16.53
2019-05-20T02:39:09.157Z,16.79
2019-05-20T02:41:40.595Z,17.09
2019-05-20T02:44:12.036Z,17.37
2019-05-20T02:46:45.006Z,17.61
2019-05-20T02:49:16.401Z,17.82
2019-05-20T02:51:47.877Z,18.00
2019-05-20T02:54:19.371Z,18.20
2019-05-20T02:56:50.903Z,18.32
2019-05-20T02:59:22.446Z,18.41
2019-05-20T03:01:53.925Z,18.55
2019-05-20T03:04:25.431Z,18.83
2019-05-20T03:06:56.943Z,19.14
2019-05-20T03:09:28.394Z,19.46
2019-05-20T03:11:59.908Z,20.05
2019-05-20T03:14:33.140Z,20.63
2019-05-20T03:17:05.713Z,21.00
2019-05-20T03:19:37.239Z,21.29
2019-05-20T03:22:08.729Z,21.63
2019-05-20T03:24:40.793Z,21.69
2019-05-20T03:27:12.374Z,21.83
2019-05-20T03:29:45.365Z,21.84
2019-05-20T03:32:18.950Z,21.73
2019-05-20T03:34:58.721Z,21.62
2019-05-20T03:37:23.556Z,21.81
2019-05-20T03:39:56.631Z,21.92
2019-05-20T03:42:28.253Z,22.03
2019-05-20T03:44:59.733Z,22.34
2019-05-20T03:47:31.153Z,22.38
2019-05-20T03:50:02.675Z,22.69
2019-05-20T03:52:34.104Z,22.63
2019-05-20T03:55:07.578Z,22.88
2019-05-20T03:57:39.074Z,23.29
2019-05-20T04:00:11.427Z,23.64
2019-05-20T04:02:42.969Z,23.75
2019-05-20T04:05:14.431Z,23.95
2019-05-20T04:07:46.044Z,23.98
2019-05-20T04:10:17.694Z,24.20
2019-05-20T04:12:49.439Z,24.74
2019-05-20T04:15:20.948Z,24.90
2019-05-20T04:17:52.530Z,24.99
2019-05-20T04:20:24.007Z,24.85
2019-05-20T04:22:55.528Z,24.88
2019-05-20T04:25:27.021Z,24.96
2019-05-20T04:27:58.837Z,25.10
2019-05-20T04:30:30.441Z,25.09
2019-05-20T04:33:01.935Z,25.36
2019-05-20T04:35:33.426Z,25.57
2019-05-20T04:38:06.136Z,25.47
2019-05-20T04:40:39.148Z,25.58
2019-05-20T04:43:10.773Z,25.95
2019-05-20T04:45:42.271Z,26.18
2019-05-20T04:48:14.173Z,26.29
2019-05-20T04:50:46.886Z,26.26
2019-05-20T04:53:18.334Z,26.44
2019-05-20T04:55:49.773Z,26.22
2019-05-20T04:58:21.265Z,26.03
2019-05-20T05:00:54.510Z,26.27
2019-05-20T05:03:25.958Z,25.92
2019-05-20T05:05:57.732Z,25.96
2019-05-20T05:08:29.226Z,25.79
2019-05-20T05:11:00.784Z,25.77
2019-05-20T05:13:32.314Z,25.59
2019-05-20T05:16:03.922Z,25.70
2019-05-20T05:18:35.515Z,25.49
2019-05-20T05:21:06.984Z,25.31
2019-05-20T05:23:38.558Z,25.36
2019-05-20T05:26:10.056Z,25.30
2019-05-20T05:28:41.627Z,25.28
2019-05-20T05:31:13.044Z,25.35
2019-05-20T05:33:44.505Z,25.10
2019-05-20T05:36:16.041Z,25.11
2019-05-20T05:38:47.548Z,24.98
2019-05-20T05:41:19.075Z,24.73
2019-05-20T05:43:50.590Z,24.51
2019-05-20T05:46:23.157Z,24.37
2019-05-20T05:48:54.733Z,24.44
2019-05-20T05:51:26.353Z,24.58
2019-05-20T05:53:57.883Z,24.53
2019-05-20T05:56:29.457Z,24.72
2019-05-20T05:59:00.886Z,24.89
2019-05-20T06:01:32.303Z,25.03
2019-05-20T06:04:04.775Z,25.12
2019-05-20T06:06:36.246Z,25.16
2019-05-20T06:09:07.962Z,25.37
2019-05-20T06:11:39.511Z,25.37
2019-05-20T06:14:11.051Z,25.53
2019-05-20T06:16:42.685Z,25.75
2019-05-20T06:19:14.173Z,25.98
2019-05-20T06:21:45.685Z,25.91
2019-05-20T06:24:17.206Z,25.92
2019-05-20T06:26:48.655Z,25.90
2019-05-20T06:29:21.820Z,26.12
2019-05-20T06:31:53.346Z,26.42
2019-05-20T06:34:24.949Z,26.62
2019-05-20T06:37:04.329Z,26.86
2019-05-20T06:39:36.513Z,26.93
2019-05-20T06:42:08.073Z,26.87
2019-05-20T06:44:52.344Z,26.90
2019-05-20T06:47:12.706Z,26.93
2019-05-20T06:49:44.148Z,26.98
2019-05-20T06:52:15.568Z,26.93
2019-05-20T06:54:47.193Z,26.64
2019-05-20T06:57:18.684Z,26.48
2019-05-20T06:59:50.049Z,26.66
2019-05-20T07:02:21.549Z,26.61
2019-05-20T07:04:53.088Z,26.65
2019-05-20T07:07:24.531Z,26.86
2019-05-20T07:09:55.962Z,27.08
2019-05-20T07:12:40.576Z,27.27
2019-05-20T07:15:02.280Z,27.15
2019-05-20T07:17:35.461Z,27.02
2019-05-20T07:20:09.893Z,26.96
2019-05-20T07:22:55.188Z,27.04
2019-05-20T07:25:14.310Z,26.99
2019-05-20T07:27:47.320Z,27.29
2019-05-20T07:30:20.698Z,27.20
2019-05-20T07:32:52.216Z,27.04
2019-05-20T07:35:30.245Z,27.18
2019-05-20T07:37:57.096Z,27.17
2019-05-20T07:40:33.285Z,27.35
2019-05-20T07:43:06.248Z,27.13
2019-05-20T07:45:38.639Z,27.02
2019-05-20T07:48:10.268Z,27.28
2019-05-20T07:50:43.094Z,27.53
2019-05-20T07:53:16.592Z,27.77
2019-05-20T07:55:59.833Z,27.78
2019-05-20T07:58:34.224Z,27.76
2019-05-20T08:01:05.743Z,27.88
2019-05-20T08:03:38.691Z,27.89
2019-05-20T08:06:10.359Z,27.90
2019-05-20T08:08:42.192Z,27.77
2019-05-20T08:11:13.688Z,27.68
2019-05-20T08:13:45.094Z,27.77
2019-05-20T08:16:16.536Z,27.81
2019-05-20T08:18:48.082Z,27.69
2019-05-20T08:21:19.607Z,27.76
2019-05-20T08:23:51.105Z,27.68
2019-05-20T08:26:22.531Z,27.79
2019-05-20T08:28:54.070Z,27.98
2019-05-20T08:31:26.521Z,28.19
2019-05-20T08:33:59.067Z,27.97
2019-05-20T08:36:30.568Z,27.98
2019-05-20T08:39:02.073Z,28.31
2019-05-20T08:41:34.922Z,28.39
2019-05-20T08:44:06.472Z,28.73
2019-05-20T08:46:37.990Z,28.43
2019-05-20T08:49:11.278Z,28.51
2019-05-20T08:51:42.715Z,28.51
2019-05-20T08:54:14.116Z,28.66
2019-05-20T08:56:49.178Z,28.39
2019-05-20T08:59:18.662Z,28.07
2019-05-20T09:01:51.754Z,27.90
2019-05-20T09:04:23.311Z,27.84
2019-05-20T09:06:54.961Z,27.95
2019-05-20T09:09:27.337Z,27.84
2019-05-20T09:12:01.160Z,27.68
2019-05-20T09:14:32.630Z,27.74
2019-05-20T09:17:04.078Z,27.55
2019-05-20T09:19:35.562Z,27.45
2019-05-20T09:22:07.731Z,27.78
2019-05-20T09:24:39.657Z,27.79
2019-05-20T09:27:14.529Z,27.75
2019-05-20T09:29:46.242Z,27.47
2019-05-20T09:32:17.778Z,27.53
2019-05-20T09:34:49.798Z,27.71
2019-05-20T09:37:21.341Z,27.83
2019-05-20T09:39:53.312Z,27.91
2019-05-20T09:42:24.874Z,27.91
2019-05-20T09:44:56.342Z,27.89
2019-05-20T09:47:27.973Z,27.88
2019-05-20T09:49:59.517Z,27.82
2019-05-20T09:52:31.751Z,27.61
2019-05-20T09:55:04.157Z,27.65
2019-05-20T09:57:38.566Z,27.53
2019-05-20T10:00:12.781Z,27.61
2019-05-20T10:02:44.506Z,27.53
2019-05-20T10:05:18.871Z,27.71
2019-05-20T10:07:50.494Z,27.77
2019-05-20T10:10:22.139Z,27.50
2019-05-20T10:12:54.760Z,27.64
2019-05-20T10:15:26.336Z,27.79
2019-05-20T10:17:57.780Z,27.87
2019-05-20T10:20:29.290Z,27.77
2019-05-20T10:23:00.821Z,27.71
2019-05-20T10:25:32.228Z,27.77
2019-05-20T10:28:05.986Z,27.80
2019-05-20T10:30:37.449Z,27.80
2019-05-20T10:33:10.509Z,27.75
2019-05-20T10:35:42.093Z,27.80
2019-05-20T10:38:13.583Z,27.98
2019-05-20T10:40:45.049Z,27.89
2019-05-20T10:43:16.538Z,27.97
2019-05-20T10:45:47.971Z,27.83
2019-05-20T10:48:19.464Z,27.87
2019-05-20T10:50:50.980Z,27.98
2019-05-20T10:53:22.522Z,27.93
2019-05-20T10:55:54.122Z,27.93
2019-05-20T10:58:26.638Z,27.96
2019-05-20T11:01:03.489Z,28.01
2019-05-20T11:03:31.269Z,27.97
2019-05-20T11:06:03.136Z,27.85
2019-05-20T11:08:34.584Z,27.81
2019-05-20T11:11:06.112Z,27.82
2019-05-20T11:13:37.587Z,28.03
2019-05-20T11:16:09.402Z,28.04
2019-05-20T11:18:42.750Z,28.19
2019-05-20T11:21:14.356Z,28.12
2019-05-20T11:23:45.870Z,28.07
2019-05-20T11:26:17.377Z,28.10
2019-05-20T11:28:48.870Z,28.04
2019-05-20T11:31:20.302Z,28.04
2019-05-20T11:33:51.744Z,28.01
2019-05-20T11:36:24.667Z,28.04
2019-05-20T11:38:57.549Z,28.10
2019-05-20T11:41:52.250Z,28.12
2019-05-20T11:44:02.494Z,28.07
2019-05-20T11:46:35.175Z,28.04
2019-05-20T11:49:06.711Z,27.97
2019-05-20T11:51:39.317Z,27.93
2019-05-20T11:54:11.508Z,28.10
2019-05-20T11:56:49.262Z,28.21
2019-05-20T11:59:27.204Z,28.31
2019-05-20T12:01:58.815Z,28.32
2019-05-20T12:04:31.300Z,28.16
2019-05-20T12:07:04.154Z,28.11
2019-05-20T12:09:49.019Z,28.00
2019-05-20T12:12:09.240Z,27.91
2019-05-20T12:14:48.935Z,27.96
2019-05-20T12:17:25.218Z,27.98
2019-05-20T12:19:56.810Z,27.93
2019-05-20T12:22:30.992Z,27.94
2019-05-20T12:25:02.505Z,27.85
2019-05-20T12:27:35.085Z,27.60
2019-05-20T12:30:07.619Z,27.73
2019-05-20T12:32:39.139Z,27.83
2019-05-20T12:35:11.693Z,27.94
2019-05-20T12:37:45.604Z,28.04
2019-05-20T12:40:16.509Z,28.08
2019-05-20T12:42:47.952Z,28.16
2019-05-20T12:45:20.069Z,28.07
2019-05-20T12:47:51.585Z,27.97
2019-05-20T12:50:27.898Z,27.98
2019-05-20T12:53:01.285Z,28.04
2019-05-20T12:55:35.197Z,28.03
2019-05-20T12:58:06.756Z,28.05
2019-05-20T13:00:38.296Z,28.03
2019-05-20T13:03:15.493Z,27.89
2019-05-20T13:05:48.603Z,27.87
2019-05-20T13:08:20.433Z,27.89
2019-05-20T13:10:51.959Z,27.95
2019-05-20T13:13:25.084Z,28.03
2019-05-20T13:15:56.490Z,28.04
2019-05-20T13:18:28.516Z,27.92
2019-05-20T13:20:59.993Z,27.91
2019-05-20T13:23:31.921Z,27.77
2019-05-20T13:26:03.429Z,27.65
2019-05-20T13:28:34.870Z,27.60
2019-05-20T13:31:06.503Z,27.59
2019-05-20T13:33:39.436Z,27.63
2019-05-20T13:36:10.946Z,27.51
2019-05-20T13:38:42.547Z,27.52
2019-05-20T13:41:15.086Z,27.50
2019-05-20T13:43:46.989Z,27.59
2019-05-20T13:46:18.497Z,27.65
2019-05-20T13:48:51.129Z,27.59
2019-05-20T13:51:22.881Z,27.55
2019-05-20T13:53:54.402Z,27.56
2019-05-20T13:56:25.855Z,27.56
2019-05-20T13:58:57.268Z,27.53
2019-05-20T14:01:28.716Z,27.58
2019-05-20T14:04:00.152Z,27.58
2019-05-20T14:06:31.647Z,27.52
2019-05-20T14:09:07.469Z,27.45
2019-05-20T14:11:37.894Z,27.39
2019-05-20T14:14:09.555Z,27.30
2019-05-20T14:16:41.158Z,27.29
2019-05-20T14:19:12.695Z,27.28
2019-05-20T14:21:51.492Z,27.26
2019-05-20T14:24:24.047Z,27.14
2019-05-20T14:27:03.006Z,27.13
2019-05-20T14:29:34.610Z,27.13
2019-05-20T14:32:13.453Z,27.08
2019-05-20T14:34:47.360Z,27.01
2019-05-20T14:37:22.604Z,26.99
2019-05-20T14:39:55.756Z,26.96
2019-05-20T14:42:30.525Z,26.91
2019-05-20T14:45:02.843Z,26.84
2019-05-20T14:47:36.686Z,26.83
2019-05-20T14:50:09.634Z,26.75
2019-05-20T14:52:41.135Z,26.72
2019-05-20T14:55:12.573Z,26.72
2019-05-20T14:57:44.663Z,26.66
2019-05-20T15:00:16.284Z,26.70
2019-05-20T15:02:50.537Z,26.65
2019-05-20T15:05:34.915Z,26.58
2019-05-20T15:08:20.126Z,26.54
2019-05-20T15:10:54.481Z,26.54
2019-05-20T15:13:29.575Z,26.48
2019-05-20T15:16:00.801Z,26.44
2019-05-20T15:18:34.289Z,26.39
2019-05-20T15:21:08.714Z,26.37
2019-05-20T15:23:40.878Z,26.35
2019-05-20T15:26:14.110Z,26.25
2019-05-20T15:28:47.837Z,26.25
2019-05-20T15:31:20.476Z,26.23
2019-05-20T15:33:55.234Z,26.19
2019-05-20T15:36:28.252Z,26.17
2019-05-20T15:39:00.707Z,26.11
2019-05-20T15:41:34.422Z,26.10
2019-05-20T15:44:05.838Z,26.08
2019-05-20T15:46:37.351Z,26.03
2019-05-20T15:49:08.860Z,25.94
2019-05-20T15:51:44.146Z,25.91
2019-05-20T15:54:18.321Z,25.79
2019-05-20T15:56:52.441Z,25.72
2019-05-20T15:59:25.655Z,25.69
2019-05-20T16:01:57.209Z,25.65
2019-05-20T16:04:28.718Z,25.61
2019-05-20T16:07:00.536Z,25.55
2019-05-20T16:09:32.020Z,25.54
2019-05-20T16:12:03.615Z,25.42
2019-05-20T16:14:37.245Z,25.38
2019-05-20T16:17:08.869Z,25.31
2019-05-20T16:19:42.473Z,25.36
2019-05-20T16:22:15.568Z,25.29
2019-05-20T16:24:52.402Z,25.12
2019-05-20T16:27:32.643Z,24.98
2019-05-20T16:30:10.010Z,24.95
2019-05-20T16:32:43.604Z,24.90
2019-05-20T16:35:16.233Z,24.80
2019-05-20T16:37:47.658Z,24.75
2019-05-20T16:40:25.455Z,24.87
2019-05-20T16:43:01.383Z,24.88
2019-05-20T16:45:38.299Z,24.75
2019-05-20T16:48:10.222Z,24.68
2019-05-20T16:50:46.728Z,24.51
2019-05-20T16:53:18.267Z,24.43
2019-05-20T16:55:50.543Z,24.32
2019-05-20T16:58:22.148Z,24.21
2019-05-20T17:00:53.800Z,24.12
2019-05-20T17:03:25.422Z,23.93
2019-05-20T17:05:58.544Z,23.90
2019-05-20T17:08:30.550Z,23.80
2019-05-20T17:11:02.479Z,23.70
2019-05-20T17:13:46.309Z,23.62
2019-05-20T17:16:41.944Z,23.46
2019-05-20T17:19:16.349Z,23.33
2019-05-20T17:21:51.102Z,23.23
2019-05-20T17:24:25.814Z,23.10
2019-05-20T17:27:00.613Z,22.93
2019-05-20T17:29:39.351Z,22.88
2019-05-20T17:32:12.260Z,22.82
2019-05-20T17:34:50.029Z,22.80
2019-05-20T17:37:33.160Z,22.73
2019-05-20T17:40:13.875Z,22.62
2019-05-20T17:42:45.904Z,22.58
2019-05-20T17:45:21.188Z,22.54
2019-05-20T17:47:56.465Z,22.47
2019-05-20T17:50:28.704Z,22.40
2019-05-20T17:53:05.956Z,22.28
2019-05-20T17:55:38.179Z,22.21
2019-05-20T17:58:09.975Z,22.15
2019-05-20T18:00:44.963Z,22.11
2019-05-20T18:03:17.676Z,22.03
2019-05-20T18:05:52.459Z,22.04
2019-05-20T18:08:26.594Z,22.02
2019-05-20T18:10:58.662Z,22.00
2019-05-20T18:13:30.532Z,21.90
2019-05-20T18:16:03.732Z,21.85
2019-05-20T18:18:36.163Z,21.66
2019-05-20T18:21:07.849Z,21.53
2019-05-20T18:23:40.818Z,21.54
2019-05-20T18:26:17.115Z,21.53
2019-05-20T18:28:52.113Z,21.46
2019-05-20T18:31:32.533Z,21.32
2019-05-20T18:34:00.731Z,21.29
2019-05-20T18:36:33.077Z,21.20
2019-05-20T18:39:11.169Z,21.16
2019-05-20T18:41:41.963Z,21.00
2019-05-20T18:48:07.289Z,20.73
2019-05-20T18:50:47.351Z,20.56
2019-05-20T18:53:32.788Z,20.44
2019-05-20T18:56:04.744Z,20.36
2019-05-20T18:58:36.252Z,20.10
2019-05-20T19:01:09.529Z,19.83
2019-05-20T19:03:45.373Z,19.66
2019-05-20T19:06:17.418Z,19.49
2019-05-20T19:08:50.514Z,19.33
2019-05-20T19:11:24.774Z,19.23
2019-05-20T19:13:58.246Z,19.22
2019-05-20T19:16:37.846Z,19.21
2019-05-20T19:19:10.031Z,19.24
2019-05-20T19:21:45.418Z,19.16
2019-05-20T19:24:19.587Z,19.18
2019-05-20T19:26:52.184Z,19.24
2019-05-20T19:29:24.738Z,19.25
2019-05-20T19:32:01.815Z,19.29
2019-05-20T19:34:31.406Z,19.32
2019-05-20T19:37:03.909Z,19.32
2019-05-20T19:39:35.407Z,19.39
2019-05-20T19:42:07.033Z,19.42
2019-05-20T19:44:40.799Z,19.56
2019-05-20T19:47:18.469Z,19.58
2019-05-20T19:49:55.219Z,19.60
2019-05-20T19:52:37.939Z,19.59
2019-05-20T19:55:25.079Z,19.54
2019-05-20T19:58:26.428Z,19.48
2019-05-20T20:01:41.351Z,19.49
2019-05-20T20:04:33.012Z,19.42
2019-05-20T20:07:52.977Z,19.33
2019-05-20T20:10:29.065Z,19.24
2019-05-20T20:13:01.610Z,19.12
2019-05-20T20:15:33.111Z,19.11
2019-05-20T20:18:04.618Z,19.04
2019-05-20T20:20:36.128Z,19.06
2019-05-20T20:23:07.587Z,19.07
2019-05-20T20:25:41.784Z,18.98
2019-05-20T20:28:13.281Z,18.93
2019-05-20T20:30:44.774Z,18.91
2019-05-20T20:33:16.297Z,18.86
2019-05-20T20:35:47.844Z,18.75
2019-05-20T20:38:19.817Z,18.70
2019-05-20T20:40:54.318Z,18.67
2019-05-20T20:43:25.902Z,18.70
2019-05-20T20:46:01.197Z,18.68
2019-05-20T20:48:37.023Z,18.68
2019-05-20T20:51:15.460Z,18.52
2019-05-20T20:53:52.730Z,18.46
2019-05-20T20:56:25.742Z,18.35
2019-05-20T20:58:57.229Z,18.34
2019-05-20T21:01:28.658Z,18.24
2019-05-20T21:04:00.244Z,18.32
2019-05-20T21:06:31.749Z,18.19
2019-05-20T21:09:04.367Z,18.13
2019-05-20T21:11:37.516Z,17.99
2019-05-20T21:14:09.022Z,17.96
2019-05-20T21:16:40.449Z,17.92
2019-05-20T21:19:11.962Z,17.88
2019-05-20T21:21:43.506Z,17.84
2019-05-20T21:24:15.037Z,17.75
2019-05-20T21:26:46.533Z,17.70
2019-05-20T21:29:19.817Z,17.64
2019-05-20T21:31:51.396Z,17.64
2019-05-20T21:34:47.836Z,17.59
2019-05-20T21:37:20.566Z,17.56
2019-05-20T21:39:54.341Z,17.47
2019-05-20T21:42:25.730Z,17.35
2019-05-20T21:45:01.910Z,17.31
2019-05-20T21:47:33.258Z,17.31
2019-05-20T21:50:06.560Z,17.29
2019-05-20T21:52:54.600Z,17.31
2019-05-20T21:55:31.502Z,17.29
2019-05-20T21:58:08.978Z,17.29
2019-05-20T22:00:56.563Z,17.33
2019-05-20T22:03:31.476Z,17.27
2019-05-20T22:06:02.822Z,17.23
2019-05-20T22:08:34.245Z,17.19
2019-05-20T22:11:05.752Z,17.12
2019-05-20T22:13:37.262Z,17.03
2019-05-20T22:16:08.754Z,16.97
2019-05-20T22:18:40.249Z,16.84
2019-05-20T22:21:14.872Z,16.83
2019-05-20T22:23:54.042Z,16.77
2019-05-20T22:26:25.525Z,16.82
2019-05-20T22:28:57.054Z,16.80
2019-05-20T22:31:28.679Z,16.68
2019-05-20T22:34:00.633Z,16.60
2019-05-20T22:36:32.585Z,16.45
2019-05-20T22:39:05.504Z,16.36
2019-05-20T22:41:36.921Z,16.36
2019-05-20T22:44:08.340Z,16.35
2019-05-20T22:46:39.854Z,16.38
2019-05-20T22:49:11.377Z,16.37
2019-05-20T22:51:42.908Z,16.33
2019-05-20T22:54:14.551Z,16.29
2019-05-20T22:56:49.150Z,16.34
2019-05-20T22:59:20.720Z,16.29
2019-05-20T23:01:52.732Z,16.31
2019-05-20T23:04:24.230Z,16.28
2019-05-20T23:06:56.685Z,16.29
2019-05-20T23:09:28.825Z,16.28
2019-05-20T23:12:03.465Z,16.29
2019-05-20T23:14:35.015Z,16.25
2019-05-20T23:17:06.455Z,16.27
2019-05-20T23:19:37.964Z,16.31
2019-05-20T23:22:09.748Z,16.31
2019-05-20T23:24:41.772Z,16.27
2019-05-20T23:27:28.558Z,16.24
2019-05-20T23:30:00.064Z,16.24
2019-05-20T23:32:31.497Z,16.24
2019-05-20T23:35:03.030Z,16.29
2019-05-20T23:37:35.059Z,16.22
2019-05-20T23:40:07.501Z,16.18
2019-05-20T23:42:38.888Z,16.28
2019-05-20T23:45:11.146Z,16.28
2019-05-20T23:47:42.556Z,16.25
2019-05-20T23:50:14.303Z,16.24
2019-05-20T23:52:46.048Z,16.29
2019-05-20T23:55:17.402Z,16.37
2019-05-20T23:57:50.546Z,16.36
